createdAt,value
2023-04-14T00:00:01.718Z,28.07
2023-04-14T00:01:01.744Z,27.85
2023-04-14T00:02:01.803Z,27.19
2023-04-14T00:03:02.044Z,28.36
2023-04-14T00:04:01.970Z,26.29
2023-04-14T00:05:01.822Z,28.87
2023-04-14T00:06:01.774Z,27.87
2023-04-14T00:07:01.785Z,28.36
2023-04-14T00:08:01.846Z,26.49
2023-04-14T00:09:02.049Z,27.21
2023-04-14T00:10:01.843Z,25.49
2023-04-14T00:11:01.879Z,27.25
2023-04-14T00:12:01.897Z,26.87
2023-04-14T00:13:01.997Z,27.20
2023-04-14T00:14:01.957Z,27.61
2023-04-14T00:15:01.934Z,28.06
2023-04-14T00:16:01.937Z,28.26
2023-04-14T00:17:01.961Z,29.17
2023-04-14T00:18:02.017Z,26.14
2023-04-14T00:19:02.199Z,25.00
2023-04-14T00:20:02.013Z,27.34
2023-04-14T00:21:01.993Z,27.35
2023-04-14T00:22:02.080Z,27.26
2023-04-14T00:23:02.060Z,28.15
2023-04-14T00:24:02.071Z,28.49
2023-04-14T00:25:02.066Z,27.29
2023-04-14T00:26:02.108Z,29.26
2023-04-14T00:27:02.112Z,28.02
2023-04-14T00:28:02.092Z,26.61
2023-04-14T00:29:02.522Z,27.59
2023-04-14T00:30:02.122Z,28.51
2023-04-14T00:31:02.196Z,28.34
2023-04-14T00:32:02.123Z,26.90
2023-04-14T00:33:02.231Z,26.56
2023-04-14T00:34:02.173Z,26.20
2023-04-14T00:35:02.181Z,25.97
2023-04-14T00:36:02.201Z,28.10
2023-04-14T00:37:02.202Z,28.03
2023-04-14T00:38:02.228Z,26.73
2023-04-14T00:39:02.584Z,28.68
2023-04-14T00:40:02.334Z,27.18
2023-04-14T00:41:02.242Z,27.81
2023-04-14T00:42:02.287Z,28.28
2023-04-14T00:43:02.261Z,26.73
2023-04-14T00:44:02.308Z,25.21
2023-04-14T00:45:02.345Z,28.77
2023-04-14T00:46:02.354Z,26.18
2023-04-14T00:47:02.304Z,27.03
2023-04-14T00:48:02.349Z,27.80
2023-04-14T00:49:02.811Z,26.79
2023-04-14T00:50:02.394Z,26.70
2023-04-14T00:51:02.379Z,25.69
2023-04-14T00:52:02.407Z,27.81
2023-04-14T00:53:02.365Z,27.97
2023-04-14T00:54:02.378Z,28.43
2023-04-14T00:55:02.430Z,27.78
2023-04-14T00:56:02.420Z,30.10
2023-04-14T00:57:02.408Z,28.28
2023-04-14T00:58:02.419Z,25.83
2023-04-14T00:59:02.631Z,28.97
2023-04-14T01:00:02.416Z,29.60
2023-04-14T01:01:02.434Z,29.34
2023-04-14T01:02:02.551Z,29.07
2023-04-14T01:03:02.590Z,28.32
2023-04-14T01:04:02.569Z,27.71
2023-04-14T01:05:02.715Z,26.54
2023-04-14T01:06:02.483Z,27.91
2023-04-14T01:07:02.518Z,26.70
2023-04-14T01:08:02.572Z,29.68
2023-04-14T01:09:02.640Z,28.72
2023-04-14T01:10:02.543Z,27.12
2023-04-14T01:11:02.601Z,26.05
2023-04-14T01:12:02.603Z,26.89
2023-04-14T01:13:02.600Z,26.26
2023-04-14T01:14:02.599Z,28.18
2023-04-14T01:15:02.602Z,28.07
2023-04-14T01:16:02.683Z,27.41
2023-04-14T01:17:02.671Z,25.00
2023-04-14T01:18:02.714Z,26.80
2023-04-14T01:19:02.751Z,27.30
2023-04-14T01:20:02.686Z,28.44
2023-04-14T01:21:02.690Z,29.49
2023-04-14T01:22:02.736Z,28.84
2023-04-14T01:23:02.734Z,30.37
2023-04-14T01:24:02.758Z,24.77
2023-04-14T01:25:02.716Z,26.84
2023-04-14T01:26:02.787Z,28.78
2023-04-14T01:27:02.782Z,27.49
2023-04-14T01:28:02.810Z,28.00
2023-04-14T01:29:02.956Z,30.24
2023-04-14T01:30:02.813Z,29.67
2023-04-14T01:31:02.838Z,29.55
2023-04-14T01:32:02.965Z,27.59
2023-04-14T01:33:02.850Z,27.53
2023-04-14T01:34:02.844Z,27.65
2023-04-14T01:35:02.867Z,27.89
2023-04-14T01:36:02.874Z,25.43
2023-04-14T01:37:02.880Z,26.74
2023-04-14T01:38:02.910Z,27.80
2023-04-14T01:39:02.901Z,26.05
2023-04-14T01:40:02.916Z,27.75
2023-04-14T01:41:02.900Z,26.87
2023-04-14T01:42:02.935Z,28.12
2023-04-14T01:43:02.929Z,28.84
2023-04-14T01:44:02.950Z,26.56
2023-04-14T01:45:02.977Z,28.71
2023-04-14T01:46:03.056Z,28.99
2023-04-14T01:47:02.989Z,27.79
2023-04-14T01:48:03.059Z,26.68
2023-04-14T01:49:03.265Z,26.40
2023-04-14T01:50:03.010Z,28.20
2023-04-14T01:51:03.008Z,27.53
2023-04-14T01:52:03.065Z,29.27
2023-04-14T01:53:03.062Z,27.77
2023-04-14T01:54:03.054Z,28.01
2023-04-14T01:55:03.110Z,27.24
2023-04-14T01:56:03.081Z,25.65
2023-04-14T01:57:03.118Z,25.00
2023-04-14T01:58:03.130Z,28.14
2023-04-14T01:59:03.941Z,28.33
2023-04-14T02:00:03.147Z,27.14
2023-04-14T02:01:03.199Z,26.62
2023-04-14T02:02:03.256Z,28.30
2023-04-14T02:03:03.262Z,28.74
2023-04-14T02:04:03.407Z,26.48
2023-04-14T02:05:03.224Z,28.22
2023-04-14T02:06:03.228Z,29.46
2023-04-14T02:07:03.277Z,26.49
2023-04-14T02:08:03.263Z,29.60
2023-04-14T02:09:03.248Z,25.00
2023-04-14T02:10:03.277Z,26.50
2023-04-14T02:11:03.292Z,26.86
2023-04-14T02:12:03.296Z,27.31
2023-04-14T02:13:03.275Z,27.17
2023-04-14T02:14:03.290Z,26.08
2023-04-14T02:15:03.284Z,28.57
2023-04-14T02:16:03.346Z,25.00
2023-04-14T02:17:03.371Z,29.71
2023-04-14T02:18:03.401Z,29.65
2023-04-14T02:19:03.382Z,29.70
2023-04-14T02:20:03.378Z,28.72
2023-04-14T02:21:03.385Z,27.66
2023-04-14T02:22:03.391Z,28.73
2023-04-14T02:23:03.432Z,27.90
2023-04-14T02:24:03.391Z,27.06
2023-04-14T02:25:03.433Z,26.87
2023-04-14T02:26:03.463Z,28.00
2023-04-14T02:27:03.435Z,28.55
2023-04-14T02:28:03.500Z,28.59
2023-04-14T02:29:03.484Z,28.32
2023-04-14T02:30:03.478Z,26.69
2023-04-14T02:31:03.537Z,25.60
2023-04-14T02:32:03.558Z,26.86
2023-04-14T02:33:03.572Z,26.58
2023-04-14T02:34:03.515Z,28.20
2023-04-14T02:35:03.604Z,26.28
2023-04-14T02:36:03.557Z,26.88
2023-04-14T02:37:03.546Z,26.91
2023-04-14T02:38:03.580Z,26.88
2023-04-14T02:39:03.590Z,28.08
2023-04-14T02:40:03.625Z,26.60
2023-04-14T02:41:03.614Z,26.32
2023-04-14T02:42:03.642Z,26.77
2023-04-14T02:43:03.621Z,28.85
2023-04-14T02:44:03.681Z,27.01
2023-04-14T02:45:03.653Z,27.93
2023-04-14T02:46:03.738Z,27.50
2023-04-14T02:47:03.695Z,26.64
2023-04-14T02:48:03.734Z,27.15
2023-04-14T02:49:03.727Z,26.70
2023-04-14T02:50:03.716Z,26.32
2023-04-14T02:51:03.719Z,26.57
2023-04-14T02:52:03.725Z,28.62
2023-04-14T02:53:03.787Z,25.13
2023-04-14T02:54:03.785Z,25.73
2023-04-14T02:55:03.765Z,30.21
2023-04-14T02:56:03.775Z,27.39
2023-04-14T02:57:03.833Z,28.29
2023-04-14T02:58:04.051Z,28.27
2023-04-14T02:59:03.838Z,28.47
2023-04-14T03:00:03.840Z,28.08
2023-04-14T03:01:04.054Z,26.73
2023-04-14T03:02:03.986Z,28.11
2023-04-14T03:03:04.011Z,26.03
2023-04-14T03:04:03.918Z,27.86
2023-04-14T03:05:03.919Z,30.51
2023-04-14T03:06:03.922Z,27.43
2023-04-14T03:07:03.969Z,27.67
2023-04-14T03:08:03.963Z,28.05
2023-04-14T03:09:04.016Z,25.30
2023-04-14T03:10:03.990Z,27.73
2023-04-14T03:11:04.007Z,27.16
2023-04-14T03:12:04.012Z,26.44
2023-04-14T03:13:04.052Z,26.62
2023-04-14T03:14:04.053Z,27.83
2023-04-14T03:15:04.079Z,28.43
2023-04-14T03:16:04.111Z,26.59
2023-04-14T03:17:04.079Z,28.02
2023-04-14T03:18:04.119Z,27.84
2023-04-14T03:19:04.118Z,27.41
2023-04-14T03:20:04.123Z,26.05
2023-04-14T03:21:04.108Z,26.36
2023-04-14T03:22:04.147Z,25.00
2023-04-14T03:23:04.148Z,27.03
2023-04-14T03:24:04.153Z,28.26
2023-04-14T03:25:04.168Z,28.24
2023-04-14T03:26:04.192Z,26.82
2023-04-14T03:27:04.162Z,25.66
2023-04-14T03:28:04.135Z,27.40
2023-04-14T03:29:04.186Z,25.72
2023-04-14T03:30:04.181Z,25.05
2023-04-14T03:31:04.194Z,27.25
2023-04-14T03:32:04.183Z,27.96
2023-04-14T03:33:04.208Z,28.20
2023-04-14T03:34:04.196Z,27.04
2023-04-14T03:35:04.201Z,28.04
2023-04-14T03:36:04.249Z,27.30
2023-04-14T03:37:04.295Z,27.29
2023-04-14T03:38:04.327Z,27.44
2023-04-14T03:39:04.335Z,27.19
2023-04-14T03:40:04.404Z,26.73
2023-04-14T03:41:04.438Z,26.32
2023-04-14T03:42:04.526Z,25.00
2023-04-14T03:43:04.582Z,26.60
2023-04-14T03:44:04.661Z,26.88
2023-04-14T03:45:04.691Z,29.46
2023-04-14T03:46:04.782Z,26.40
2023-04-14T03:47:04.929Z,26.14
2023-04-14T03:48:04.954Z,25.86
2023-04-14T03:49:04.984Z,26.79
2023-04-14T03:50:05.018Z,26.19
2023-04-14T03:51:05.049Z,26.48
2023-04-14T03:52:05.118Z,27.49
2023-04-14T03:53:05.165Z,26.48
2023-04-14T03:54:05.224Z,27.68
2023-04-14T03:55:05.253Z,28.38
2023-04-14T03:56:05.286Z,28.54
2023-04-14T03:57:05.337Z,26.26
2023-04-14T03:58:05.387Z,27.19
2023-04-14T03:59:05.455Z,26.75
2023-04-14T04:00:05.523Z,25.36
2023-04-14T04:01:05.525Z,25.76
2023-04-14T04:02:05.600Z,26.73
2023-04-14T04:03:05.670Z,27.22
2023-04-14T04:04:05.684Z,27.54
2023-04-14T04:05:05.729Z,26.85
2023-04-14T04:06:05.707Z,27.11
2023-04-14T04:07:05.758Z,26.04
2023-04-14T04:08:05.778Z,27.77
2023-04-14T04:09:05.847Z,28.44
2023-04-14T04:10:05.871Z,26.35
2023-04-14T04:11:05.918Z,28.81
2023-04-14T04:12:05.919Z,28.06
2023-04-14T04:13:05.955Z,27.39
2023-04-14T04:14:05.998Z,28.16
2023-04-14T04:15:05.995Z,25.00
2023-04-14T04:16:06.129Z,27.52
2023-04-14T04:17:06.101Z,27.60
2023-04-14T04:18:06.169Z,27.53
2023-04-14T04:19:06.165Z,28.73
2023-04-14T04:20:07.283Z,28.86
2023-04-14T04:21:06.222Z,28.33
2023-04-14T04:22:06.240Z,25.81
2023-04-14T04:23:06.290Z,27.45
2023-04-14T04:24:06.354Z,25.46
2023-04-14T04:25:06.339Z,27.60
2023-04-14T04:26:06.426Z,25.96
2023-04-14T04:27:09.884Z,26.20
2023-04-14T04:28:07.422Z,26.40
2023-04-14T04:29:06.389Z,26.97
2023-04-14T04:30:06.392Z,27.55
2023-04-14T04:31:06.429Z,27.56
2023-04-14T04:32:06.438Z,28.21
2023-04-14T04:33:06.448Z,27.31
2023-04-14T04:34:06.376Z,27.16
2023-04-14T04:35:06.343Z,28.50
2023-04-14T04:36:06.399Z,25.15
2023-04-14T04:37:06.348Z,28.95
2023-04-14T04:38:06.345Z,28.07
2023-04-14T04:39:06.338Z,29.06
2023-04-14T04:40:06.312Z,27.68
2023-04-14T04:41:06.322Z,28.24
2023-04-14T04:42:06.339Z,28.16
2023-04-14T04:43:06.288Z,27.44
2023-04-14T04:44:06.383Z,26.75
2023-04-14T04:45:06.294Z,28.56
2023-04-14T04:46:06.403Z,27.53
2023-04-14T04:47:06.352Z,27.73
2023-04-14T04:48:06.403Z,28.49
2023-04-14T04:49:06.375Z,26.11
2023-04-14T04:50:06.427Z,29.84
2023-04-14T04:51:06.427Z,25.50
2023-04-14T04:52:06.456Z,29.14
2023-04-14T04:53:06.505Z,27.80
2023-04-14T04:54:06.543Z,28.20
2023-04-14T04:55:06.567Z,28.16
2023-04-14T04:56:06.569Z,29.49
2023-04-14T04:57:06.577Z,29.33
2023-04-14T04:58:06.629Z,27.67
2023-04-14T04:59:06.633Z,29.40
2023-04-14T05:00:06.682Z,27.94
2023-04-14T05:01:06.698Z,28.23
2023-04-14T05:02:06.766Z,26.99
2023-04-14T05:03:06.940Z,26.77
2023-04-14T05:04:06.834Z,29.55
2023-04-14T05:05:06.878Z,27.31
2023-04-14T05:06:06.896Z,28.25
2023-04-14T05:07:06.869Z,26.21
2023-04-14T05:08:06.898Z,28.16
2023-04-14T05:09:06.944Z,27.71
2023-04-14T05:10:06.947Z,26.18
2023-04-14T05:11:06.957Z,28.71
2023-04-14T05:12:06.993Z,28.05
2023-04-14T05:13:07.021Z,28.75
2023-04-14T05:14:07.083Z,27.48
2023-04-14T05:15:07.108Z,26.54
2023-04-14T05:16:07.175Z,29.35
2023-04-14T05:17:07.130Z,29.32
2023-04-14T05:18:07.318Z,30.58
2023-04-14T05:19:07.223Z,29.52
2023-04-14T05:20:07.258Z,29.13
2023-04-14T05:21:07.310Z,28.39
2023-04-14T05:22:07.362Z,27.03
2023-04-14T05:23:07.384Z,26.31
2023-04-14T05:24:07.420Z,26.31
2023-04-14T05:25:07.453Z,27.83
2023-04-14T05:26:31.035Z,28.04
2023-04-14T05:28:07.471Z,28.27
2023-04-14T05:29:07.507Z,28.46
2023-04-14T05:30:07.448Z,29.11
2023-04-14T05:31:07.464Z,28.36
2023-04-14T05:32:07.423Z,29.31
2023-04-14T05:33:07.478Z,28.70
2023-04-14T05:34:07.583Z,30.50
2023-04-14T05:35:07.419Z,31.01
2023-04-14T05:36:07.472Z,29.95
2023-04-14T05:37:07.414Z,28.01
2023-04-14T05:38:07.445Z,34.08
2023-04-14T05:39:07.596Z,41.41
2023-04-14T05:40:07.413Z,50.29
2023-04-14T05:41:07.496Z,54.30
2023-04-14T05:42:07.393Z,83.28
2023-04-14T05:43:07.387Z,95.43
2023-04-14T05:44:07.604Z,85.41
2023-04-14T05:45:07.397Z,101.52
2023-04-14T05:46:14.483Z,104.77
2023-04-14T05:47:07.405Z,106.14
2023-04-14T05:48:07.523Z,112.05
2023-04-14T05:49:07.403Z,125.02
2023-04-14T05:50:07.394Z,150.62
2023-04-14T05:51:07.380Z,202.84
2023-04-14T05:52:07.387Z,195.60
2023-04-14T05:53:07.389Z,204.19
2023-04-14T05:54:07.340Z,206.49
2023-04-14T05:55:07.458Z,214.11
2023-04-14T05:56:07.321Z,216.64
2023-04-14T05:57:07.339Z,223.27
2023-04-14T05:58:07.354Z,225.01
2023-04-14T05:59:07.331Z,233.09
2023-04-14T06:00:07.289Z,247.23
2023-04-14T06:01:07.322Z,253.68
2023-04-14T06:02:07.552Z,242.76
2023-04-14T06:03:07.458Z,239.08
2023-04-14T06:04:08.075Z,242.99
2023-04-14T06:05:07.492Z,249.90
2023-04-14T06:06:07.264Z,250.00
2023-04-14T06:07:07.314Z,250.00
2023-04-14T06:08:07.246Z,249.47
2023-04-14T06:09:07.597Z,250.00
2023-04-14T06:10:07.225Z,248.39
2023-04-14T06:11:07.270Z,248.56
2023-04-14T06:12:07.234Z,245.88
2023-04-14T06:13:07.240Z,249.84
2023-04-14T06:14:07.263Z,248.76
2023-04-14T06:15:07.224Z,249.58
2023-04-14T06:16:07.272Z,246.57
2023-04-14T06:17:07.213Z,245.66
2023-04-14T06:18:07.251Z,248.81
2023-04-14T06:19:07.188Z,249.82
2023-04-14T06:20:07.217Z,248.98
2023-04-14T06:21:07.255Z,249.57
2023-04-14T06:22:07.312Z,250.00
2023-04-14T06:23:07.348Z,249.28
2023-04-14T06:24:07.325Z,248.84
2023-04-14T06:25:07.363Z,249.24
2023-04-14T06:26:07.405Z,249.09
2023-04-14T06:27:07.466Z,250.10
2023-04-14T06:28:07.470Z,249.48
2023-04-14T06:29:07.556Z,248.84
2023-04-14T06:30:07.524Z,249.72
2023-04-14T06:31:07.547Z,248.88
2023-04-14T06:32:07.668Z,249.25
2023-04-14T06:33:07.795Z,250.00
2023-04-14T06:34:07.692Z,249.96
2023-04-14T06:35:07.603Z,244.82
2023-04-14T06:36:07.676Z,239.69
2023-04-14T06:37:07.674Z,231.29
2023-04-14T06:38:07.736Z,228.19
2023-04-14T06:39:07.779Z,215.38
2023-04-14T06:40:07.816Z,215.92
2023-04-14T06:41:07.891Z,213.98
2023-04-14T06:42:07.959Z,203.86
2023-04-14T06:43:07.985Z,197.20
2023-04-14T06:44:08.162Z,202.54
2023-04-14T06:45:08.152Z,198.24
2023-04-14T06:46:08.213Z,199.89
2023-04-14T06:47:09.125Z,190.63
2023-04-14T06:48:08.384Z,187.96
2023-04-14T06:49:08.380Z,177.06
2023-04-14T06:50:08.472Z,170.19
2023-04-14T06:51:08.503Z,172.57
2023-04-14T06:52:08.565Z,172.71
2023-04-14T06:53:08.654Z,163.85
2023-04-14T06:54:09.141Z,165.23
2023-04-14T06:55:08.768Z,166.51
2023-04-14T06:56:08.821Z,166.99
2023-04-14T06:58:08.984Z,158.54
2023-04-14T06:59:09.119Z,153.47
2023-04-14T07:00:09.096Z,154.92
2023-04-14T07:01:09.131Z,149.05
2023-04-14T07:02:09.184Z,151.53
2023-04-14T07:03:09.375Z,145.43
2023-04-14T07:04:09.524Z,142.91
2023-04-14T07:05:09.391Z,145.21
2023-04-14T07:06:09.418Z,145.48
2023-04-14T07:07:09.468Z,145.38
2023-04-14T07:08:09.515Z,145.51
2023-04-14T07:09:09.584Z,141.54
2023-04-14T07:10:09.697Z,141.38
2023-04-14T07:11:09.699Z,139.48
2023-04-14T07:12:09.773Z,140.22
2023-04-14T07:13:09.817Z,136.24
2023-04-14T07:14:09.867Z,134.07
2023-04-14T07:15:09.930Z,129.93
2023-04-14T07:16:10.026Z,127.85
2023-04-14T07:17:10.017Z,130.71
2023-04-14T07:18:10.297Z,129.36
2023-04-14T07:19:10.716Z,130.18
2023-04-14T07:20:10.215Z,128.12
2023-04-14T07:21:10.247Z,128.22
2023-04-14T07:22:10.270Z,125.60
2023-04-14T07:23:10.349Z,126.64
2023-04-14T07:24:10.394Z,124.58
2023-04-14T07:25:10.432Z,122.54
2023-04-14T07:26:10.569Z,119.37
2023-04-14T07:27:10.562Z,116.30
2023-04-14T07:28:10.628Z,113.59
2023-04-14T07:29:10.722Z,111.61
2023-04-14T07:30:11.124Z,110.61
2023-04-14T07:31:10.971Z,107.49
2023-04-14T07:32:10.898Z,97.11
2023-04-14T07:33:10.959Z,96.87
2023-04-14T07:34:11.034Z,91.79
2023-04-14T07:35:11.127Z,91.71
2023-04-14T07:36:11.057Z,88.90
2023-04-14T07:37:11.078Z,87.50
2023-04-14T07:38:11.073Z,92.96
2023-04-14T07:39:11.087Z,91.68
2023-04-14T07:40:11.124Z,92.87
2023-04-14T07:41:11.151Z,95.67
2023-04-14T07:42:11.130Z,97.03
2023-04-14T07:43:11.180Z,98.40
2023-04-14T07:44:11.249Z,100.47
2023-04-14T07:45:11.667Z,102.89
2023-04-14T07:46:11.349Z,100.88
2023-04-14T07:47:11.379Z,97.00
2023-04-14T07:48:11.479Z,101.90
2023-04-14T07:49:11.528Z,102.17
2023-04-14T07:50:11.627Z,104.11
2023-04-14T07:51:11.663Z,102.90
2023-04-14T07:52:11.716Z,103.58
2023-04-14T07:53:11.748Z,89.79
2023-04-14T07:54:11.805Z,93.27
2023-04-14T07:55:12.140Z,92.56
2023-04-14T07:56:12.655Z,95.95
2023-04-14T07:57:11.952Z,96.84
2023-04-14T07:58:15.371Z,97.00
2023-04-14T07:59:12.016Z,100.58
2023-04-14T08:00:12.031Z,100.05
2023-04-14T08:01:11.982Z,100.25
2023-04-14T08:02:12.055Z,98.87
2023-04-14T08:03:12.052Z,100.15
2023-04-14T08:04:12.132Z,99.19
2023-04-14T08:05:12.008Z,93.25
2023-04-14T08:06:11.939Z,94.81
2023-04-14T08:07:11.925Z,92.56
2023-04-14T08:08:11.885Z,98.13
2023-04-14T08:09:11.862Z,100.22
2023-04-14T08:10:12.153Z,99.27
2023-04-14T08:11:11.845Z,101.91
2023-04-14T08:12:11.815Z,102.60
2023-04-14T08:13:11.865Z,104.49
2023-04-14T08:14:11.809Z,105.85
2023-04-14T08:15:12.059Z,105.75
2023-04-14T08:16:11.819Z,106.34
2023-04-14T08:17:11.791Z,106.72
2023-04-14T08:18:11.718Z,110.24
2023-04-14T08:19:11.722Z,107.02
2023-04-14T08:20:11.701Z,109.47
2023-04-14T08:21:11.671Z,109.85
2023-04-14T08:22:11.650Z,104.83
2023-04-14T08:23:11.636Z,105.09
2023-04-14T08:24:11.625Z,98.31
2023-04-14T08:25:11.613Z,100.70
2023-04-14T08:26:11.583Z,98.88
2023-04-14T08:27:11.542Z,99.76
2023-04-14T08:28:11.549Z,99.75
2023-04-14T08:29:11.526Z,97.17
2023-04-14T08:30:11.841Z,89.98
2023-04-14T08:31:11.509Z,85.02
2023-04-14T08:32:11.455Z,86.42
2023-04-14T08:33:11.529Z,82.54
2023-04-14T08:34:11.474Z,80.28
2023-04-14T08:35:39.471Z,77.06
2023-04-14T08:36:12.531Z,77.08
2023-04-14T08:37:11.459Z,74.08
2023-04-14T08:38:11.615Z,72.14
2023-04-14T08:39:11.469Z,65.48
2023-04-14T08:40:11.433Z,64.00
2023-04-14T08:41:11.401Z,60.05
2023-04-14T08:42:11.448Z,56.76
2023-04-14T08:43:14.537Z,53.15
2023-04-14T08:44:11.366Z,53.20
2023-04-14T08:45:11.358Z,48.09
2023-04-14T08:46:11.352Z,42.71
2023-04-14T08:47:11.293Z,43.47
2023-04-14T08:48:11.302Z,41.11
2023-04-14T08:49:11.338Z,36.25
2023-04-14T08:50:11.725Z,32.72
2023-04-14T08:51:11.314Z,44.12
2023-04-14T08:52:11.314Z,45.64
2023-04-14T08:53:11.294Z,48.35
2023-04-14T08:54:11.347Z,42.79
2023-04-14T08:55:11.670Z,48.87
2023-04-14T08:56:11.294Z,33.83
2023-04-14T08:57:11.306Z,34.06
2023-04-14T08:58:11.403Z,25.23
2023-04-14T08:59:11.292Z,25.00
2023-04-14T09:00:11.316Z,25.00
2023-04-14T09:01:11.436Z,26.12
2023-04-14T09:02:11.485Z,25.94
2023-04-14T09:03:11.458Z,28.66
2023-04-14T09:04:11.473Z,27.53
2023-04-14T09:05:11.259Z,31.82
2023-04-14T09:06:11.354Z,29.50
2023-04-14T09:07:11.272Z,26.98
2023-04-14T09:08:11.263Z,24.67
2023-04-14T09:09:11.284Z,26.82
2023-04-14T09:10:11.345Z,30.42
2023-04-14T09:11:11.354Z,28.48
2023-04-14T09:12:11.303Z,29.16
2023-04-14T09:13:11.312Z,37.31
2023-04-14T09:14:11.318Z,42.59
2023-04-14T09:15:12.338Z,43.38
2023-04-14T09:16:11.415Z,44.83
2023-04-14T09:17:11.312Z,46.83
2023-04-14T09:18:11.425Z,44.79
2023-04-14T09:19:11.375Z,42.35
2023-04-14T09:20:35.396Z,47.63
2023-04-14T09:21:50.041Z,47.83
2023-04-14T09:22:12.247Z,47.92
2023-04-14T09:23:11.262Z,48.34
2023-04-14T09:24:12.317Z,42.56
2023-04-14T09:25:11.265Z,37.53
2023-04-14T09:26:11.708Z,37.19
2023-04-14T09:27:11.217Z,33.72
2023-04-14T09:28:11.190Z,34.56
2023-04-14T09:29:11.195Z,33.65
2023-04-14T09:30:11.172Z,41.35
2023-04-14T09:31:11.236Z,45.29
2023-04-14T09:32:11.146Z,45.63
2023-04-14T09:33:11.215Z,45.40
2023-04-14T09:34:11.204Z,52.11
2023-04-14T09:35:11.146Z,51.78
2023-04-14T09:36:11.296Z,53.12
2023-04-14T09:37:11.116Z,48.16
2023-04-14T09:38:11.146Z,44.83
2023-04-14T09:39:11.092Z,46.75
2023-04-14T09:40:11.138Z,44.42
2023-04-14T09:41:11.247Z,42.59
2023-04-14T09:42:11.101Z,69.13
2023-04-14T09:43:11.083Z,88.72
2023-04-14T09:44:11.064Z,70.06
2023-04-14T09:45:11.063Z,62.78
2023-04-14T09:46:11.119Z,57.07
2023-04-14T09:47:12.138Z,57.32
2023-04-14T09:48:11.094Z,48.02
2023-04-14T09:49:11.100Z,37.49
2023-04-14T09:50:11.070Z,30.17
2023-04-14T09:51:11.118Z,38.00
2023-04-14T09:52:12.669Z,58.44
2023-04-14T09:53:11.132Z,64.25
2023-04-14T09:54:11.078Z,67.05
2023-04-14T09:55:11.076Z,65.45
2023-04-14T09:56:11.104Z,53.33
2023-04-14T09:57:11.143Z,42.82
2023-04-14T09:58:11.102Z,45.79
2023-04-14T09:59:11.152Z,50.94
2023-04-14T10:00:11.160Z,41.84
2023-04-14T10:01:11.288Z,31.75
2023-04-14T10:02:11.280Z,22.74
2023-04-14T10:03:11.390Z,26.78
2023-04-14T10:04:11.511Z,26.35
2023-04-14T10:05:11.455Z,24.76
2023-04-14T10:06:11.468Z,25.00
2023-04-14T10:07:11.467Z,24.70
2023-04-14T10:08:11.537Z,27.13
2023-04-14T10:09:11.588Z,26.81
2023-04-14T10:10:11.678Z,27.82
2023-04-14T10:11:11.849Z,25.00
2023-04-14T10:12:11.862Z,25.32
2023-04-14T10:13:11.973Z,25.00
2023-04-14T10:14:11.977Z,26.20
2023-04-14T10:15:12.036Z,27.16
2023-04-14T10:16:12.107Z,30.44
2023-04-14T10:17:12.054Z,26.87
2023-04-14T10:18:12.131Z,28.00
2023-04-14T10:19:12.137Z,32.49
2023-04-14T10:20:12.126Z,32.61
2023-04-14T10:21:12.168Z,31.67
2023-04-14T10:22:12.165Z,34.63
2023-04-14T10:23:12.182Z,38.17
2023-04-14T10:24:12.232Z,41.38
2023-04-14T10:25:12.208Z,47.56
2023-04-14T10:26:12.273Z,46.93
2023-04-14T10:27:12.267Z,48.00
2023-04-14T10:28:12.287Z,55.63
2023-04-14T10:29:12.342Z,60.84
2023-04-14T10:30:12.303Z,66.62
2023-04-14T10:31:12.409Z,75.63
2023-04-14T10:32:12.447Z,76.24
2023-04-14T10:33:12.535Z,78.65
2023-04-14T10:34:12.572Z,80.59
2023-04-14T10:35:12.673Z,81.01
2023-04-14T10:36:12.775Z,82.81
2023-04-14T10:37:12.743Z,84.84
2023-04-14T10:38:12.800Z,87.32
2023-04-14T10:39:12.873Z,86.43
2023-04-14T10:40:12.911Z,87.34
2023-04-14T10:41:13.225Z,89.09
2023-04-14T10:42:12.994Z,89.97
2023-04-14T10:43:13.046Z,89.59
2023-04-14T10:44:13.075Z,89.05
2023-04-14T10:45:13.156Z,90.22
2023-04-14T10:46:13.194Z,91.12
2023-04-14T10:47:13.302Z,90.43
2023-04-14T10:48:13.248Z,90.98
2023-04-14T10:49:13.294Z,90.98
2023-04-14T10:50:13.352Z,89.98
2023-04-14T10:51:13.330Z,90.57
2023-04-14T10:52:13.376Z,90.95
2023-04-14T10:53:13.395Z,90.45
2023-04-14T10:54:13.495Z,90.10
2023-04-14T10:55:13.444Z,90.94
2023-04-14T10:56:13.522Z,91.72
2023-04-14T10:57:13.539Z,91.66
2023-04-14T10:58:13.580Z,90.32
2023-04-14T10:59:13.580Z,90.16
2023-04-14T11:00:13.638Z,89.89
2023-04-14T11:01:13.737Z,90.74
2023-04-14T11:02:13.856Z,89.31
2023-04-14T11:03:13.945Z,89.16
2023-04-14T11:04:13.827Z,88.24
2023-04-14T11:05:13.813Z,89.33
2023-04-14T11:06:13.819Z,88.71
2023-04-14T11:07:13.900Z,88.54
2023-04-14T11:08:13.905Z,90.49
2023-04-14T11:09:13.899Z,89.07
2023-04-14T11:10:13.951Z,87.69
2023-04-14T11:11:13.978Z,88.58
2023-04-14T11:12:14.240Z,87.53
2023-04-14T11:13:15.585Z,88.47
2023-04-14T11:14:14.008Z,88.30
2023-04-14T11:15:13.986Z,89.88
2023-04-14T11:16:14.146Z,87.45
2023-04-14T11:17:14.071Z,87.68
2023-04-14T11:18:14.075Z,87.70
2023-04-14T11:19:14.007Z,87.00
2023-04-14T11:20:14.023Z,87.93
2023-04-14T11:21:14.038Z,87.19
2023-04-14T11:22:13.999Z,86.81
2023-04-14T11:23:14.015Z,87.07
2023-04-14T11:24:14.003Z,86.14
2023-04-14T11:25:14.012Z,85.90
2023-04-14T11:26:14.168Z,86.02
2023-04-14T11:27:14.235Z,85.33
2023-04-14T11:28:14.003Z,86.47
2023-04-14T11:29:14.017Z,86.04
2023-04-14T11:30:13.996Z,86.07
2023-04-14T11:31:14.013Z,87.21
2023-04-14T11:32:14.319Z,85.76
2023-04-14T11:33:14.029Z,86.48
2023-04-14T11:34:13.972Z,86.20
2023-04-14T11:35:13.993Z,85.95
2023-04-14T11:36:13.975Z,86.06
2023-04-14T11:37:13.946Z,86.57
2023-04-14T11:38:13.971Z,86.73
2023-04-14T11:39:13.950Z,87.37
2023-04-14T11:40:13.954Z,84.19
2023-04-14T11:41:13.953Z,88.03
2023-04-14T11:42:13.940Z,86.62
2023-04-14T11:43:13.919Z,86.28
2023-04-14T11:44:13.880Z,86.71
2023-04-14T11:45:13.885Z,85.67
2023-04-14T11:46:13.973Z,86.76
2023-04-14T11:47:13.912Z,85.91
2023-04-14T11:48:13.851Z,86.67
2023-04-14T11:49:13.939Z,86.45
2023-04-14T11:50:13.833Z,86.95
2023-04-14T11:51:13.848Z,85.98
2023-04-14T11:52:13.892Z,86.79
2023-04-14T11:53:13.855Z,87.42
2023-04-14T11:54:13.867Z,86.91
2023-04-14T11:55:13.817Z,87.90
2023-04-14T11:56:13.840Z,86.77
2023-04-14T11:57:13.826Z,86.35
2023-04-14T11:58:13.750Z,88.65
2023-04-14T11:59:13.775Z,87.22
2023-04-14T12:00:13.761Z,87.47
2023-04-14T12:01:13.748Z,88.16
2023-04-14T12:02:13.822Z,87.82
2023-04-14T12:03:13.792Z,87.50
2023-04-14T12:04:13.806Z,88.03
2023-04-14T12:05:13.916Z,88.62
2023-04-14T12:06:13.675Z,88.96
2023-04-14T12:07:13.682Z,87.66
2023-04-14T12:08:13.664Z,88.39
2023-04-14T12:09:13.647Z,88.92
2023-04-14T12:10:13.636Z,88.51
2023-04-14T12:11:13.723Z,87.93
2023-04-14T12:12:13.629Z,87.75
2023-04-14T12:13:13.589Z,87.83
2023-04-14T12:14:13.572Z,88.12
2023-04-14T12:15:13.688Z,87.88
2023-04-14T12:16:13.665Z,88.58
2023-04-14T12:17:13.539Z,87.47
2023-04-14T12:18:13.694Z,88.19
2023-04-14T12:19:13.536Z,88.33
2023-04-14T12:20:13.573Z,89.42
2023-04-14T12:21:13.533Z,88.48
2023-04-14T12:22:13.501Z,88.32
2023-04-14T12:23:13.492Z,87.97
2023-04-14T12:24:13.504Z,87.32
2023-04-14T12:25:13.512Z,88.03
2023-04-14T12:26:13.519Z,88.88
2023-04-14T12:27:13.490Z,89.24
2023-04-14T12:28:13.456Z,88.00
2023-04-14T12:29:13.451Z,88.84
2023-04-14T12:30:13.450Z,88.94
2023-04-14T12:31:13.468Z,89.92
2023-04-14T12:32:13.422Z,89.86
2023-04-14T12:33:13.420Z,89.04
2023-04-14T12:34:13.412Z,88.90
2023-04-14T12:35:13.413Z,90.24
2023-04-14T12:36:13.403Z,89.85
2023-04-14T12:37:13.404Z,89.57
2023-04-14T12:38:13.407Z,90.02
2023-04-14T12:39:13.397Z,90.28
2023-04-14T12:40:13.360Z,90.37
2023-04-14T12:41:13.369Z,90.25
2023-04-14T12:42:13.416Z,89.81
2023-04-14T12:43:13.382Z,90.71
2023-04-14T12:44:13.358Z,91.13
2023-04-14T12:45:13.332Z,92.16
2023-04-14T12:46:13.333Z,90.94
2023-04-14T12:47:13.384Z,91.20
2023-04-14T12:48:13.468Z,92.35
2023-04-14T12:49:13.324Z,91.87
2023-04-14T12:50:13.402Z,91.21